createdAt,value
2023-03-08T05:51:39.423Z,95195.81
2023-03-08T06:12:57.741Z,95161.81
2023-03-08T06:18:10.802Z,95161.81
2023-03-08T06:39:47.655Z,95124.31
2023-03-08T06:44:55.646Z,95108.97
2023-03-08T06:50:09.532Z,95109.44
2023-03-08T06:52:39.808Z,95097.50
2023-03-08T07:00:38.002Z,95073.88
2023-03-08T07:03:09.181Z,95077.28
2023-03-08T07:05:36.911Z,95078.41
2023-03-08T07:18:53.530Z,95061.25
2023-03-08T07:24:02.265Z,95049.78
2023-03-08T07:34:42.040Z,95026.81
2023-03-08T07:50:46.911Z,95003.59
2023-03-08T07:53:20.029Z,94996.75
2023-03-08T07:55:51.063Z,94993.19
2023-03-08T08:01:02.338Z,95003.09
2023-03-08T08:03:29.951Z,94993.56
2023-03-08T08:05:58.099Z,94991.59
2023-03-08T08:08:25.299Z,94990.91
2023-03-08T08:10:52.309Z,94985.06
2023-03-08T08:13:20.119Z,94978.75
2023-03-08T08:15:48.983Z,94973.22
2023-03-08T08:18:17.284Z,94980.28
2023-03-08T08:20:45.248Z,94970.84
2023-03-08T08:23:12.744Z,94970.84
2023-03-08T08:25:42.483Z,94965.78
2023-03-08T08:28:09.608Z,94956.56
2023-03-08T08:30:38.125Z,94957.09
2023-03-08T08:33:06.559Z,94958.41
2023-03-08T08:35:43.088Z,94953.22
2023-03-08T08:38:12.370Z,94945.09
2023-03-08T08:40:39.441Z,94942.16
2023-03-08T08:43:06.807Z,94936.31
2023-03-08T08:45:33.951Z,94939.03
2023-03-08T08:48:00.961Z,94939.75
2023-03-08T08:50:27.831Z,94929.97
2023-03-08T08:52:54.563Z,94920.88
2023-03-08T08:55:22.460Z,94919.44
2023-03-08T08:57:49.919Z,94923.81
2023-03-08T09:00:18.109Z,94919.09
2023-03-08T09:02:49.987Z,94905.41
2023-03-08T09:05:19.782Z,94905.13
2023-03-08T09:07:46.859Z,94897.13
2023-03-08T09:10:14.036Z,94895.16
2023-03-08T09:12:41.509Z,94890.59
2023-03-08T09:15:10.393Z,94895.63
2023-03-08T09:17:38.461Z,94886.75
2023-03-08T09:20:12.004Z,94888.00
2023-03-08T09:22:39.181Z,94880.16
2023-03-08T09:25:06.945Z,94868.78
2023-03-08T09:27:33.908Z,94864.25
2023-03-08T09:30:00.767Z,94862.28
2023-03-08T09:32:27.915Z,94858.09
2023-03-08T09:34:55.161Z,94855.66
2023-03-08T09:37:22.096Z,94853.38
2023-03-08T09:39:51.200Z,94851.56
2023-03-08T09:42:24.373Z,94852.72
2023-03-08T09:45:05.342Z,94843.41
2023-03-08T09:47:33.299Z,94835.97
2023-03-08T09:50:20.232Z,94838.97
2023-03-08T09:52:52.385Z,94837.16
2023-03-08T09:55:31.960Z,94835.78
2023-03-08T09:58:03.096Z,94837.78
2023-03-08T10:00:31.710Z,94836.13
2023-03-08T10:03:17.410Z,94824.31
2023-03-08T10:05:44.008Z,94822.19
2023-03-08T10:08:14.189Z,94805.59
2023-03-08T10:10:46.946Z,94809.25
2023-03-08T10:13:13.960Z,94811.47
2023-03-08T10:15:42.622Z,94802.22
2023-03-08T10:18:20.700Z,94807.59
2023-03-08T10:20:47.646Z,94807.59
2023-03-08T10:23:15.563Z,94803.50
2023-03-08T10:25:42.654Z,94809.53
2023-03-08T10:28:17.257Z,94821.50
2023-03-08T10:30:48.130Z,94815.78
2023-03-08T10:33:15.801Z,94808.28
2023-03-08T10:36:01.539Z,94810.25
2023-03-08T10:38:32.351Z,94810.16
2023-03-08T10:44:23.326Z,94800.50
2023-03-08T12:15:26.782Z,94727.75
2023-03-08T13:13:04.688Z,94711.00
2023-03-08T13:15:32.472Z,94701.16
2023-03-08T13:18:09.729Z,94699.19
2023-03-08T13:20:41.771Z,94698.44
2023-03-08T13:23:09.095Z,94693.22
2023-03-08T13:25:35.764Z,94691.59
2023-03-08T13:28:04.764Z,94694.22
2023-03-08T13:30:33.157Z,94692.16
2023-03-08T13:33:00.196Z,94686.38
2023-03-08T13:35:26.983Z,94686.19
2023-03-08T13:37:58.968Z,94693.22
2023-03-08T13:40:26.378Z,94686.00
2023-03-08T13:42:53.998Z,94683.78
2023-03-08T13:45:20.728Z,94685.00
2023-03-08T13:47:47.543Z,94681.78
2023-03-08T13:50:22.411Z,94682.78
2023-03-08T13:52:49.154Z,94682.38
2023-03-08T13:55:23.768Z,94681.00
2023-03-08T13:57:52.964Z,94668.97
2023-03-08T14:00:29.135Z,94663.13
2023-03-08T14:05:47.411Z,94661.53
2023-03-08T14:08:24.452Z,94656.50
2023-03-08T14:10:53.171Z,94652.09
2023-03-08T14:13:21.968Z,94654.31
2023-03-08T14:18:39.593Z,94654.75
2023-03-08T17:08:17.429Z,94610.31
2023-03-08T17:13:33.637Z,94594.13
2023-03-08T17:16:06.900Z,94600.50
2023-03-08T17:18:37.627Z,94614.66
2023-03-08T17:23:51.812Z,94607.66
2023-03-08T17:34:34.624Z,94601.78
2023-03-08T17:37:06.583Z,94602.75
2023-03-08T17:47:42.324Z,94609.50
2023-03-08T17:50:13.683Z,94610.31
2023-03-08T17:55:22.536Z,94616.31
2023-03-08T17:58:02.979Z,94609.50
2023-03-08T18:00:33.664Z,94615.09
2023-03-08T18:03:01.429Z,94611.50
2023-03-08T18:05:29.023Z,94598.53
2023-03-08T18:18:51.452Z,94602.84
2023-03-08T18:32:05.751Z,94609.38
2023-03-08T18:34:35.183Z,94594.00
2023-03-08T18:39:46.687Z,94597.03
2023-03-08T18:42:16.023Z,94601.78
2023-03-08T18:44:55.714Z,94596.59
2023-03-08T18:47:23.869Z,94596.97
2023-03-08T18:49:52.027Z,94596.97
2023-03-08T18:57:47.841Z,94598.16
2023-03-08T19:00:16.482Z,94593.59
2023-03-08T19:02:44.648Z,94597.78
2023-03-08T19:05:13.561Z,94589.00
2023-03-08T19:07:42.413Z,94602.97
2023-03-08T19:10:10.332Z,94605.06
2023-03-08T19:12:39.158Z,94603.28
2023-03-08T19:15:07.166Z,94597.66
2023-03-08T19:17:39.427Z,94595.66
2023-03-08T19:20:09.997Z,94595.66
2023-03-08T19:22:41.258Z,94594.69
2023-03-08T19:30:36.330Z,94600.13
2023-03-08T19:33:24.689Z,94593.78
2023-03-08T19:36:00.750Z,94588.41
2023-03-08T19:43:55.839Z,94577.03
2023-03-08T19:54:32.934Z,94585.78
2023-03-08T20:43:36.460Z,94565.03
2023-03-08T20:48:55.548Z,94556.69
2023-03-08T20:51:26.770Z,94557.50
2023-03-08T21:02:06.367Z,94566.06
2023-03-08T21:04:34.588Z,94560.16
2023-03-08T21:36:33.809Z,94528.91
2023-03-08T21:39:01.833Z,94531.50
2023-03-08T21:41:30.008Z,94514.31
2023-03-08T21:46:38.407Z,94518.28
2023-03-08T21:51:46.956Z,94520.38
2023-03-08T21:56:57.311Z,94530.13
2023-03-08T21:59:27.307Z,94508.13
2023-03-08T22:01:55.885Z,94508.13
2023-03-08T22:04:24.819Z,94521.63
2023-03-08T22:06:51.402Z,94520.13
2023-03-08T22:09:18.297Z,94521.41
2023-03-08T22:11:45.065Z,94520.03
2023-03-08T22:14:12.108Z,94508.66
2023-03-08T22:16:42.260Z,94507.47
2023-03-08T22:19:09.622Z,94499.88
2023-03-08T22:21:36.163Z,94488.06
2023-03-08T22:24:02.970Z,94487.66
2023-03-08T22:26:29.739Z,94478.84
2023-03-08T22:28:56.404Z,94487.84
2023-03-08T22:31:23.786Z,94485.25
2023-03-08T22:33:50.409Z,94474.84
2023-03-08T22:36:17.619Z,94466.59
2023-03-08T22:38:44.103Z,94457.78
2023-03-08T22:41:14.846Z,94462.63
2023-03-08T22:43:41.542Z,94452.22
2023-03-08T22:46:28.426Z,94460.81
2023-03-08T22:48:56.630Z,94458.19
2023-03-08T22:51:23.307Z,94451.56
2023-03-08T22:53:49.929Z,94456.09
2023-03-08T22:56:17.840Z,94458.06
2023-03-08T22:58:44.386Z,94452.59
2023-03-08T23:01:15.011Z,94456.53
2023-03-08T23:03:41.796Z,94442.31
2023-03-08T23:06:08.379Z,94437.88
2023-03-08T23:08:35.007Z,94448.66
2023-03-08T23:11:01.760Z,94445.88
2023-03-08T23:13:33.853Z,94445.06
2023-03-08T23:16:01.329Z,94441.88
2023-03-08T23:18:27.994Z,94442.63
2023-03-08T23:20:54.678Z,94451.19
2023-03-08T23:23:25.148Z,94437.19
2023-03-08T23:25:52.152Z,94437.41
2023-03-08T23:28:18.826Z,94438.81
2023-03-08T23:30:45.368Z,94439.63
2023-03-08T23:33:12.065Z,94440.50
2023-03-08T23:35:38.662Z,94440.50
2023-03-08T23:38:05.169Z,94432.28
2023-03-08T23:40:31.694Z,94427.25
2023-03-08T23:42:58.244Z,94433.03
2023-03-08T23:45:24.995Z,94433.03
2023-03-08T23:47:51.542Z,94420.25
2023-03-08T23:50:18.149Z,94425.44
2023-03-08T23:52:44.712Z,94417.66
2023-03-08T23:55:11.576Z,94424.44
2023-03-08T23:57:38.134Z,94411.06
